createdAt,value
2022-09-18T00:01:27.818Z,1.50
2022-09-18T00:03:57.171Z,1.45
2022-09-18T00:06:26.567Z,1.63
2022-09-18T00:08:54.855Z,1.70
2022-09-18T00:11:23.507Z,1.48
2022-09-18T00:13:51.018Z,1.60
2022-09-18T00:16:19.634Z,1.63
2022-09-18T00:18:46.572Z,1.50
2022-09-18T00:21:16.345Z,1.77
2022-09-18T00:23:43.545Z,1.80
2022-09-18T00:26:12.052Z,2.28
2022-09-18T00:28:39.489Z,3.88
2022-09-18T00:31:12.103Z,1.55
2022-09-18T00:33:40.001Z,2.00
2022-09-18T00:36:11.862Z,1.75
2022-09-18T00:38:38.977Z,2.67
2022-09-18T00:41:08.998Z,1.70
2022-09-18T00:43:37.573Z,1.65
2022-09-18T00:46:16.511Z,2.50
2022-09-18T00:48:46.040Z,1.70
2022-09-18T00:51:14.565Z,1.50
2022-09-18T00:53:47.260Z,1.67
2022-09-18T00:56:15.424Z,1.60
2022-09-18T00:58:42.330Z,1.88
2022-09-18T01:01:09.208Z,1.85
2022-09-18T01:03:39.056Z,1.85
2022-09-18T01:06:47.204Z,1.77
2022-09-18T01:09:28.324Z,2.00
2022-09-18T01:12:31.492Z,1.95
2022-09-18T01:15:06.629Z,2.55
2022-09-18T01:17:55.934Z,1.77
2022-09-18T01:20:49.931Z,2.00
2022-09-18T01:23:54.190Z,1.85
2022-09-18T01:27:11.063Z,1.85
2022-09-18T01:29:53.629Z,1.27
2022-09-18T01:32:37.846Z,1.80
2022-09-18T01:35:39.442Z,1.90
2022-09-18T01:38:15.574Z,1.65
2022-09-18T01:40:48.711Z,1.90
2022-09-18T01:43:22.109Z,1.75
2022-09-18T01:45:52.908Z,1.63
2022-09-18T01:48:33.537Z,2.20
2022-09-18T01:51:10.946Z,1.70
2022-09-18T01:53:48.553Z,1.95
2022-09-18T01:56:27.048Z,1.52
2022-09-18T01:58:57.894Z,2.42
2022-09-18T02:01:35.379Z,1.48
2022-09-18T02:04:10.540Z,1.73
2022-09-18T02:06:53.344Z,1.45
2022-09-18T02:09:20.190Z,1.63
2022-09-18T02:11:51.584Z,1.67
2022-09-18T02:14:28.057Z,1.63
2022-09-18T02:17:29.284Z,2.20
2022-09-18T02:20:05.056Z,1.92
2022-09-18T02:22:34.778Z,1.80
2022-09-18T02:25:06.812Z,2.90
2022-09-18T02:27:36.238Z,1.52
2022-09-18T02:30:05.057Z,1.55
2022-09-18T02:32:31.825Z,1.77
2022-09-18T02:34:58.372Z,1.73
2022-09-18T02:37:41.377Z,1.70
2022-09-18T02:40:31.345Z,1.43
2022-09-18T02:43:35.915Z,1.30
2022-09-18T02:46:23.251Z,1.42
2022-09-18T02:49:14.632Z,1.35
2022-09-18T02:52:02.398Z,1.50
2022-09-18T02:54:47.250Z,3.15
2022-09-18T02:57:20.210Z,1.35
2022-09-18T02:59:51.545Z,1.40
2022-09-18T03:02:21.318Z,1.98
2022-09-18T03:04:49.184Z,1.50
2022-09-18T03:07:22.665Z,1.40
2022-09-18T03:09:50.671Z,1.60
2022-09-18T03:12:17.318Z,1.35
2022-09-18T03:14:48.253Z,1.40
2022-09-18T03:17:14.878Z,1.88
2022-09-18T03:19:44.611Z,1.20
2022-09-18T03:22:12.045Z,1.92
2022-09-18T03:24:38.820Z,1.40
2022-09-18T03:27:07.028Z,1.52
2022-09-18T03:29:33.948Z,1.25
2022-09-18T03:32:02.102Z,1.13
2022-09-18T03:34:29.806Z,1.73
2022-09-18T03:36:56.322Z,1.40
2022-09-18T03:39:22.896Z,1.30
2022-09-18T03:41:51.326Z,2.20
2022-09-18T03:44:17.917Z,1.00
2022-09-18T03:46:45.362Z,1.33
2022-09-18T03:49:12.068Z,1.00
2022-09-18T03:51:40.425Z,1.15
2022-09-18T03:54:07.663Z,1.85
2022-09-18T03:56:48.985Z,1.60
2022-09-18T03:59:34.920Z,1.42
2022-09-18T04:02:21.796Z,1.40
2022-09-18T04:05:08.945Z,1.45
2022-09-18T04:07:54.277Z,1.58
2022-09-18T04:10:39.342Z,1.45
2022-09-18T04:13:05.915Z,1.40
2022-09-18T04:15:35.461Z,1.98
2022-09-18T04:18:04.913Z,1.52
2022-09-18T04:20:31.776Z,2.00
2022-09-18T04:22:59.745Z,1.70
2022-09-18T04:25:26.252Z,1.38
2022-09-18T04:27:53.258Z,1.58
2022-09-18T04:30:21.984Z,1.90
2022-09-18T04:32:49.546Z,1.70
2022-09-18T04:35:18.567Z,1.92
2022-09-18T04:37:45.436Z,1.40
2022-09-18T04:40:12.624Z,1.90
2022-09-18T04:42:43.614Z,1.63
2022-09-18T04:45:12.159Z,1.88
2022-09-18T04:47:43.039Z,1.45
2022-09-18T04:50:10.848Z,1.73
2022-09-18T04:52:57.341Z,1.42
2022-09-18T04:55:25.617Z,1.70
2022-09-18T04:57:54.521Z,1.58
2022-09-18T05:00:22.713Z,1.50
2022-09-18T05:02:49.358Z,2.00
2022-09-18T05:05:20.523Z,1.50
2022-09-18T05:07:47.581Z,1.40
2022-09-18T05:10:16.646Z,1.40
2022-09-18T05:12:45.198Z,1.55
2022-09-18T05:15:12.217Z,1.25
2022-09-18T05:17:42.222Z,2.00
2022-09-18T05:20:10.971Z,1.30
2022-09-18T05:22:43.875Z,1.50
2022-09-18T05:25:12.253Z,1.65
2022-09-18T05:27:39.479Z,1.60
2022-09-18T05:30:08.181Z,1.75
2022-09-18T05:32:58.875Z,1.25
2022-09-18T05:35:28.453Z,1.58
2022-09-18T05:37:55.714Z,1.42
2022-09-18T05:40:26.010Z,1.77
2022-09-18T05:42:53.806Z,1.75
2022-09-18T05:45:21.939Z,1.70
2022-09-18T05:47:57.529Z,1.73
2022-09-18T05:50:26.693Z,1.50
2022-09-18T05:52:57.807Z,2.45
2022-09-18T05:55:25.986Z,2.05
2022-09-18T05:57:53.961Z,1.50
2022-09-18T06:00:20.645Z,1.42
2022-09-18T06:03:01.689Z,1.45
2022-09-18T06:05:30.496Z,1.38
2022-09-18T06:07:59.995Z,1.50
2022-09-18T06:10:27.934Z,2.05
2022-09-18T06:13:05.106Z,1.88
2022-09-18T06:15:32.483Z,1.77
2022-09-18T06:17:59.531Z,2.42
2022-09-18T06:20:27.028Z,1.25
2022-09-18T06:22:58.780Z,1.67
2022-09-18T06:25:35.038Z,1.67
2022-09-18T06:28:03.013Z,2.25
2022-09-18T06:30:34.636Z,1.73
2022-09-18T06:33:06.411Z,1.73
2022-09-18T06:35:34.527Z,1.38
2022-09-18T06:38:03.092Z,2.00
2022-09-18T06:40:49.942Z,1.42
2022-09-18T06:43:22.381Z,1.65
2022-09-18T06:46:12.439Z,1.70
2022-09-18T06:48:48.755Z,1.90
2022-09-18T06:51:15.494Z,3.42
2022-09-18T06:54:20.566Z,1.98
2022-09-18T06:56:51.619Z,1.92
2022-09-18T06:59:19.451Z,2.10
2022-09-18T07:01:50.701Z,2.13
2022-09-18T07:04:42.133Z,1.58
2022-09-18T07:07:09.333Z,1.95
2022-09-18T07:09:35.985Z,1.27
2022-09-18T07:12:06.169Z,1.55
2022-09-18T07:14:49.140Z,1.77
2022-09-18T07:17:18.720Z,1.35
2022-09-18T07:19:49.724Z,1.85
2022-09-18T07:22:18.220Z,1.50
2022-09-18T07:24:47.051Z,1.80
2022-09-18T07:27:14.219Z,1.70
2022-09-18T07:29:42.134Z,1.52
2022-09-18T07:32:13.027Z,1.60
2022-09-18T07:34:39.831Z,1.83
2022-09-18T07:37:09.756Z,2.50
2022-09-18T07:39:36.616Z,2.05
2022-09-18T07:42:22.028Z,2.88
2022-09-18T07:44:51.832Z,1.80
2022-09-18T07:47:20.460Z,2.00
2022-09-18T07:49:47.058Z,1.63
2022-09-18T07:52:13.769Z,1.70
2022-09-18T07:54:46.958Z,1.50
2022-09-18T07:57:24.469Z,1.40
2022-09-18T08:00:15.683Z,1.20
2022-09-18T08:02:42.478Z,1.42
2022-09-18T08:05:14.051Z,1.60
2022-09-18T08:07:48.052Z,1.90
2022-09-18T08:10:50.025Z,1.42
2022-09-18T08:13:37.976Z,1.80
2022-09-18T08:16:23.630Z,1.80
2022-09-18T08:19:14.806Z,1.27
2022-09-18T08:21:48.996Z,1.92
2022-09-18T08:24:17.515Z,1.50
2022-09-18T08:26:45.653Z,1.30
2022-09-18T08:29:19.151Z,1.25
2022-09-18T08:31:51.686Z,1.38
2022-09-18T08:34:18.667Z,1.17
2022-09-18T08:36:45.842Z,1.83
2022-09-18T08:39:22.806Z,1.42
2022-09-18T08:42:12.988Z,1.38
2022-09-18T08:45:11.340Z,1.08
2022-09-18T08:47:48.687Z,1.77
2022-09-18T08:50:24.889Z,1.23
2022-09-18T08:53:01.523Z,1.30
2022-09-18T08:55:41.821Z,1.33
2022-09-18T08:58:43.041Z,1.20
2022-09-18T09:01:16.298Z,1.50
2022-09-18T09:04:07.743Z,1.50
2022-09-18T09:06:46.671Z,1.35
2022-09-18T09:09:31.993Z,1.20
2022-09-18T09:12:32.788Z,1.20
2022-09-18T09:15:20.843Z,1.35
2022-09-18T09:18:13.970Z,1.10
2022-09-18T09:20:54.006Z,1.42
2022-09-18T09:23:46.326Z,1.23
2022-09-18T09:26:25.990Z,1.33
2022-09-18T09:29:21.391Z,1.10
2022-09-18T09:32:17.525Z,1.35
2022-09-18T09:35:21.733Z,1.08
2022-09-18T09:38:39.160Z,1.40
2022-09-18T09:41:25.257Z,1.30
2022-09-18T09:44:23.777Z,1.50
2022-09-18T09:47:12.056Z,1.60
2022-09-18T09:50:13.328Z,1.15
2022-09-18T09:52:46.168Z,1.35
2022-09-18T09:55:14.490Z,1.25
2022-09-18T09:57:50.262Z,1.45
2022-09-18T10:00:19.102Z,1.20
2022-09-18T10:03:10.921Z,1.23
2022-09-18T10:05:53.994Z,1.20
2022-09-18T10:08:49.250Z,1.20
2022-09-18T10:13:53.779Z,1.02
2022-09-18T10:16:33.617Z,1.20
2022-09-18T10:19:01.472Z,1.13
2022-09-18T10:21:34.810Z,1.27
2022-09-18T10:24:29.090Z,1.38
2022-09-18T10:27:09.414Z,0.80
2022-09-18T10:29:36.275Z,1.10
2022-09-18T10:32:07.083Z,1.00
2022-09-18T10:34:48.581Z,1.13
2022-09-18T10:37:38.170Z,1.05
2022-09-18T10:40:33.830Z,1.05
2022-09-18T10:43:03.816Z,1.27
2022-09-18T10:45:36.252Z,1.15
2022-09-18T10:48:28.093Z,1.20
2022-09-18T10:51:00.458Z,0.98
2022-09-18T10:54:18.897Z,1.08
2022-09-18T10:57:25.484Z,1.13
2022-09-18T10:59:53.150Z,1.20
2022-09-18T11:02:24.572Z,0.90
2022-09-18T11:04:51.523Z,1.30
2022-09-18T11:07:25.800Z,1.30
2022-09-18T11:09:52.798Z,1.30
2022-09-18T11:12:23.370Z,1.20
2022-09-18T11:15:02.492Z,1.02
2022-09-18T11:17:35.677Z,1.30
2022-09-18T11:20:06.167Z,1.08
2022-09-18T11:22:44.385Z,0.88
2022-09-18T11:25:29.322Z,0.90
2022-09-18T11:28:01.666Z,1.35
2022-09-18T11:30:38.436Z,0.95
2022-09-18T11:33:11.501Z,1.17
2022-09-18T11:35:45.639Z,0.60
2022-09-18T11:38:19.450Z,0.88
2022-09-18T11:43:33.286Z,1.05
2022-09-18T11:46:18.770Z,0.80
2022-09-18T11:48:54.831Z,0.75
2022-09-18T11:51:40.558Z,0.90
2022-09-18T11:54:19.430Z,0.73
2022-09-18T11:56:51.526Z,0.70
2022-09-18T11:59:29.863Z,0.60
2022-09-18T12:02:17.373Z,0.75
2022-09-18T12:04:52.969Z,0.73
2022-09-18T12:07:38.731Z,0.77
2022-09-18T12:10:30.550Z,0.75
2022-09-18T12:13:12.690Z,0.75
2022-09-18T12:15:42.808Z,1.42
2022-09-18T12:18:24.736Z,0.95
2022-09-18T12:20:58.073Z,0.88
2022-09-18T12:23:26.528Z,0.90
2022-09-18T12:25:59.580Z,1.25
2022-09-18T12:28:58.864Z,1.08
2022-09-18T12:31:38.299Z,0.90
2022-09-18T12:34:46.988Z,1.02
2022-09-18T12:37:22.915Z,1.63
2022-09-18T12:40:11.546Z,1.10
2022-09-18T12:42:47.042Z,1.20
2022-09-18T12:45:32.136Z,1.40
2022-09-18T12:48:20.605Z,1.00
2022-09-18T12:51:19.738Z,0.98
2022-09-18T12:54:12.705Z,1.20
2022-09-18T12:57:20.391Z,0.90
2022-09-18T13:00:06.600Z,1.08
2022-09-18T13:02:51.319Z,1.10
2022-09-18T13:05:28.926Z,1.13
2022-09-18T13:07:56.261Z,1.00
2022-09-18T13:10:32.295Z,1.00
2022-09-18T13:13:09.382Z,1.20
2022-09-18T13:15:46.070Z,1.80
2022-09-18T13:18:32.443Z,1.30
2022-09-18T13:21:02.844Z,0.93
2022-09-18T13:23:36.944Z,0.98
2022-09-18T13:26:10.720Z,1.08
2022-09-18T13:28:41.374Z,1.30
2022-09-18T13:31:28.555Z,1.20
2022-09-18T13:34:16.202Z,1.20
2022-09-18T13:36:45.376Z,1.10
2022-09-18T13:39:28.659Z,1.15
2022-09-18T13:41:58.554Z,0.98
2022-09-18T13:44:31.443Z,0.90
2022-09-18T13:47:09.878Z,1.03
2022-09-18T13:49:48.121Z,0.95
2022-09-18T13:52:33.088Z,1.30
2022-09-18T13:55:26.651Z,2.05
2022-09-18T13:58:31.001Z,0.70
2022-09-18T14:01:00.022Z,1.00
2022-09-18T14:03:27.943Z,1.20
2022-09-18T14:05:55.232Z,1.40
2022-09-18T14:08:22.351Z,1.35
2022-09-18T14:11:05.323Z,1.30
2022-09-18T14:13:47.421Z,1.17
2022-09-18T14:16:22.165Z,1.10
2022-09-18T14:18:56.200Z,0.98
2022-09-18T14:21:32.796Z,0.95
2022-09-18T14:24:20.793Z,0.95
2022-09-18T14:26:47.513Z,1.40
2022-09-18T14:29:18.677Z,1.17
2022-09-18T14:31:45.331Z,1.42
2022-09-18T14:34:30.136Z,0.90
2022-09-18T14:37:00.847Z,1.10
2022-09-18T14:39:30.654Z,2.15
2022-09-18T14:42:01.593Z,1.42
2022-09-18T14:44:32.560Z,1.10
2022-09-18T14:47:03.174Z,0.95
2022-09-18T14:49:41.770Z,1.50
2022-09-18T14:52:30.061Z,1.23
2022-09-18T14:54:59.233Z,3.03
2022-09-18T14:57:32.635Z,1.30
2022-09-18T15:00:02.002Z,1.13
2022-09-18T15:02:34.818Z,1.50
2022-09-18T15:05:09.037Z,0.93
2022-09-18T15:07:39.775Z,1.20
2022-09-18T15:10:09.129Z,1.30
2022-09-18T15:12:36.981Z,1.50
2022-09-18T15:15:26.465Z,1.98
2022-09-18T15:17:54.197Z,1.17
2022-09-18T15:20:22.720Z,1.33
2022-09-18T15:22:51.259Z,1.20
2022-09-18T15:25:23.276Z,1.27
2022-09-18T15:27:51.068Z,1.38
2022-09-18T15:30:20.859Z,1.13
2022-09-18T15:32:56.533Z,1.40
2022-09-18T15:35:28.292Z,1.50
2022-09-18T15:38:03.371Z,1.50
2022-09-18T15:40:34.154Z,1.40
2022-09-18T15:43:04.788Z,1.00
2022-09-18T15:45:33.812Z,1.10
2022-09-18T15:48:22.359Z,1.20
2022-09-18T15:50:49.176Z,1.20
2022-09-18T15:53:21.011Z,1.30
2022-09-18T15:55:54.789Z,1.60
2022-09-18T15:58:28.246Z,1.30
2022-09-18T16:00:59.584Z,1.40
2022-09-18T16:03:31.371Z,2.20
2022-09-18T16:06:04.889Z,1.80
2022-09-18T16:08:34.244Z,1.60
2022-09-18T16:11:01.262Z,2.38
2022-09-18T16:13:46.064Z,2.20
2022-09-18T16:16:12.704Z,2.20
2022-09-18T16:18:56.226Z,3.33
2022-09-18T16:21:26.945Z,5.53
2022-09-18T16:24:01.027Z,4.07
2022-09-18T16:26:32.870Z,1.98
2022-09-18T16:29:00.164Z,2.70
2022-09-18T16:31:30.086Z,3.45
2022-09-18T16:34:16.831Z,2.25
2022-09-18T16:36:43.580Z,2.10
2022-09-18T16:39:16.220Z,2.58
2022-09-18T16:41:43.659Z,2.25
2022-09-18T16:44:11.616Z,2.53
2022-09-18T16:46:52.461Z,3.33
2022-09-18T16:49:28.144Z,2.67
2022-09-18T16:51:55.978Z,1.80
2022-09-18T16:54:22.491Z,1.90
2022-09-18T16:56:53.108Z,3.10
2022-09-18T16:59:23.821Z,3.58
2022-09-18T17:02:03.344Z,3.25
2022-09-18T17:04:31.719Z,2.10
2022-09-18T17:06:58.242Z,1.58
2022-09-18T17:09:25.191Z,1.50
2022-09-18T17:11:52.852Z,1.45
2022-09-18T17:14:20.021Z,1.25
2022-09-18T17:16:46.607Z,1.67
2022-09-18T17:19:14.648Z,1.40
2022-09-18T17:21:41.835Z,1.83
2022-09-18T17:24:09.148Z,1.77
2022-09-18T17:26:38.693Z,1.98
2022-09-18T17:29:05.644Z,2.45
2022-09-18T17:31:32.487Z,2.15
2022-09-18T17:33:59.452Z,1.70
2022-09-18T17:36:26.261Z,1.92
2022-09-18T17:38:53.047Z,1.98
2022-09-18T17:41:19.814Z,2.00
2022-09-18T17:43:53.584Z,2.03
2022-09-18T17:46:20.769Z,1.88
2022-09-18T17:48:47.977Z,1.60
2022-09-18T17:51:18.188Z,2.00
2022-09-18T17:53:46.758Z,1.75
2022-09-18T17:56:16.546Z,1.70
2022-09-18T17:58:44.353Z,1.70
2022-09-18T18:01:17.159Z,2.05
2022-09-18T18:03:44.126Z,2.38
2022-09-18T18:06:13.589Z,2.65
2022-09-18T18:08:40.160Z,2.65
2022-09-18T18:11:12.772Z,2.50
2022-09-18T18:13:41.051Z,2.28
2022-09-18T18:16:14.194Z,2.20
2022-09-18T18:18:42.262Z,2.35
2022-09-18T18:21:12.187Z,2.63
2022-09-18T18:23:40.934Z,2.28
2022-09-18T18:26:09.730Z,2.13
2022-09-18T18:28:38.049Z,2.42
2022-09-18T18:31:13.576Z,1.90
2022-09-18T18:33:42.631Z,2.03
2022-09-18T18:36:13.476Z,2.78
2022-09-18T18:38:42.017Z,2.05
2022-09-18T18:41:09.737Z,2.08
2022-09-18T18:43:39.154Z,2.00
2022-09-18T18:46:09.284Z,1.60
2022-09-18T18:48:36.767Z,1.95
2022-09-18T18:51:14.632Z,1.80
2022-09-18T18:53:42.808Z,2.00
2022-09-18T18:56:16.220Z,1.90
2022-09-18T18:58:44.006Z,1.92
2022-09-18T19:01:14.240Z,2.08
2022-09-18T19:03:51.300Z,2.40
2022-09-18T19:06:18.412Z,1.45
2022-09-18T19:08:48.326Z,1.90
2022-09-18T19:11:18.851Z,2.33
2022-09-18T19:13:56.587Z,1.60
2022-09-18T19:16:28.827Z,1.80
2022-09-18T19:19:00.534Z,1.77
2022-09-18T19:21:28.413Z,1.60
2022-09-18T19:23:59.107Z,1.25
2022-09-18T19:26:28.442Z,1.98
2022-09-18T19:28:57.483Z,1.30
2022-09-18T19:31:25.451Z,1.42
2022-09-18T19:33:53.680Z,1.83
2022-09-18T19:36:22.408Z,1.48
2022-09-18T19:38:57.395Z,1.50
2022-09-18T19:41:48.552Z,1.48
2022-09-18T19:44:36.157Z,1.30
2022-09-18T19:47:14.957Z,1.55
2022-09-18T19:49:41.701Z,1.23
2022-09-18T19:52:19.712Z,1.60
2022-09-18T19:54:47.608Z,1.33
2022-09-18T19:57:15.600Z,1.20
2022-09-18T19:59:43.004Z,1.50
2022-09-18T20:02:14.451Z,1.60
2022-09-18T20:04:41.158Z,1.75
2022-09-18T20:07:08.256Z,1.73
2022-09-18T20:09:34.910Z,2.38
2022-09-18T20:12:02.854Z,2.40
2022-09-18T20:14:30.090Z,1.65
2022-09-18T20:16:56.673Z,1.40
2022-09-18T20:19:24.661Z,1.60
2022-09-18T20:21:52.459Z,1.25
2022-09-18T20:24:19.427Z,1.60
2022-09-18T20:26:46.151Z,1.88
2022-09-18T20:29:16.330Z,1.75
2022-09-18T20:31:43.357Z,2.70
2022-09-18T20:34:10.978Z,2.13
2022-09-18T20:36:38.092Z,1.80
2022-09-18T20:39:05.292Z,1.70
2022-09-18T20:41:35.579Z,1.67
2022-09-18T20:44:05.301Z,1.50
2022-09-18T20:46:37.180Z,1.60
2022-09-18T20:49:04.733Z,1.67
2022-09-18T20:51:37.107Z,1.48
2022-09-18T20:54:07.923Z,1.42
2022-09-18T20:56:42.026Z,1.90
2022-09-18T20:59:11.341Z,1.58
2022-09-18T21:01:38.133Z,1.55
2022-09-18T21:04:04.902Z,1.67
2022-09-18T21:06:33.586Z,2.10
2022-09-18T21:09:05.594Z,1.75
2022-09-18T21:11:39.276Z,2.53
2022-09-18T21:14:08.383Z,2.10
2022-09-18T21:16:42.627Z,1.90
2022-09-18T21:19:14.794Z,1.80
2022-09-18T21:21:46.256Z,2.10
2022-09-18T21:24:13.315Z,2.40
2022-09-18T21:26:45.952Z,2.33
2022-09-18T21:29:20.754Z,2.10
2022-09-18T21:31:50.464Z,2.13
2022-09-18T21:34:24.221Z,1.95
2022-09-18T21:36:57.521Z,2.85
2022-09-18T21:39:25.821Z,2.40
2022-09-18T21:41:55.868Z,2.22
2022-09-18T21:44:27.050Z,2.80
2022-09-18T21:46:55.502Z,2.33
2022-09-18T21:49:25.320Z,2.35
2022-09-18T21:51:59.449Z,3.22
2022-09-18T21:54:27.169Z,2.40
2022-09-18T21:56:56.512Z,2.55
2022-09-18T21:59:25.672Z,2.25
2022-09-18T22:01:55.165Z,2.30
2022-09-18T22:04:27.506Z,2.10
2022-09-18T22:06:56.739Z,2.40
2022-09-18T22:09:26.827Z,2.42
2022-09-18T22:11:54.473Z,1.80
2022-09-18T22:14:24.353Z,1.58
2022-09-18T22:16:53.557Z,1.88
2022-09-18T22:19:20.417Z,1.85
2022-09-18T22:21:49.761Z,1.60
2022-09-18T22:24:19.487Z,2.30
2022-09-18T22:26:59.835Z,2.10
2022-09-18T22:29:27.713Z,2.63
2022-09-18T22:31:54.984Z,2.17
2022-09-18T22:34:24.169Z,2.88
2022-09-18T22:36:51.191Z,2.47
2022-09-18T22:39:19.917Z,1.92
2022-09-18T22:41:47.198Z,2.75
2022-09-18T22:44:15.364Z,1.80
2022-09-18T22:46:43.814Z,2.42
2022-09-18T22:49:13.270Z,1.80
2022-09-18T22:51:41.568Z,1.90
2022-09-18T22:54:08.372Z,1.70
2022-09-18T22:56:41.121Z,1.88
2022-09-18T22:59:08.041Z,2.17
2022-09-18T23:01:46.134Z,1.70
2022-09-18T23:04:14.227Z,1.88
2022-09-18T23:06:40.773Z,1.48
2022-09-18T23:09:07.537Z,1.85
2022-09-18T23:11:34.490Z,1.63
2022-09-18T23:14:04.225Z,1.60
2022-09-18T23:16:33.144Z,1.63
2022-09-18T23:19:03.554Z,1.70
2022-09-18T23:21:32.101Z,1.50
2022-09-18T23:24:00.733Z,1.20
2022-09-18T23:26:32.349Z,1.52
2022-09-18T23:29:00.117Z,1.40
2022-09-18T23:31:31.425Z,1.38
2022-09-18T23:34:00.120Z,1.65
2022-09-18T23:36:30.200Z,1.80
2022-09-18T23:39:02.205Z,1.60
2022-09-18T23:41:29.762Z,1.60
2022-09-18T23:43:56.615Z,1.33
2022-09-18T23:46:24.104Z,1.75
2022-09-18T23:48:54.969Z,1.90
2022-09-18T23:51:30.445Z,1.80
2022-09-18T23:53:59.816Z,1.30
2022-09-18T23:56:31.110Z,1.70
2022-09-18T23:59:04.257Z,1.40
